Alexander Heights, Australia

11:47 PM AWST on July 27, 2017 (GMT +0800)
Alexander Heights | | Change Station

Elev 207 ft 31.82 °S, 115.87 °E | Updated 2 minutes ago

Partly Cloudy
Partly Cloudy
64.2 °F
Feels Like 64.2 °F
N
0.0
Wind Variable Wind from North
Gusts 0.0 mph

Today
High -- | Low -- °F
--% Chance of Precip.
Yesterday
High -- | Low -- °F
Precip. -- in
Pressure 29.80 in
Visibility 6.2 miles
Clouds Few 1000 ft
Scattered Clouds 2600 ft
Dew Point 58 °F
Humidity 81%
Rainfall 0.01 in
Snow Depth Not available.
7:08 AM 5:37 PM
Waxing Crescent, 22% visible
METAR YPPH 271530Z 01009KT 9999 FEW010 SCT026 16/15 Q1009 FM1700 28016KT 9999 -SHRA BKN020 INTER 1600/1700 31025G40KT 4000 SHRA SCT015 TEMPO 1700/1830 28030G45KT 2000 +SHRA BKN010 FM1530 MOD TURB BLW 5000FT
Pressure 29.80 in
Visibility 6.2 miles
Clouds Few 1000 ft
Scattered Clouds 2600 ft
Dew Point 58 °F
Humidity 81%
Rainfall 0.01 in
Snow Depth Not available.
7:08 AM 5:37 PM
Waxing Crescent, 22% visible
METAR YPPH 271530Z 01009KT 9999 FEW010 SCT026 16/15 Q1009 FM1700 28016KT 9999 -SHRA BKN020 INTER 1600/1700 31025G40KT 4000 SHRA SCT015 TEMPO 1700/1830 28030G45KT 2000 +SHRA BKN010 FM1530 MOD TURB BLW 5000FT

Get Severe Weather Alerts

Thanks for signing up!

Be on the lookout for a verification email in your inbox.

You'll start receiving the daily forecast at 6 AM.

×

10-Day Weather Forecast

×

Almanac

Astronomy

Jul. 27, 2017 Rise Set
Actual Time
Civil Twilight
Nautical Twilight
Astronomical Twilight
Moon
Length of Visible Light
Length of Day
Tomorrow will be .
, % of the Moon is Illuminated

Today's Extremes

Country Highs Country Lows

Community

WunderPhotos

Category 6

Welcome to Category 6. This is the collective home for Weather Underground's featured writeups by Dr. Jeff Masters (right), Bob Henson (left), Chris Burt, and other regular contributors.

Nearby

Air Quality

  Air Quality AQ Index Pollutant
Not available.

Snow Depth

Station Depth Elevation

Earthquake Activity

City Distance Mag. Time & Date
Minimum magnitude displayed is 2.5.

Coastal Water Temperatures

Place Temperature

Stations

Nearby Weather Stations

Station Location Temp. Windchill Dew Point Humidity Wind Precip. Elev Updated Type